createdAt,value
2019-02-24T00:00:34.137Z,74.70
2019-02-24T00:03:06.668Z,74.60
2019-02-24T00:05:37.305Z,74.30
2019-02-24T00:08:08.061Z,74.70
2019-02-24T00:10:38.886Z,74.70
2019-02-24T00:13:09.729Z,74.70
2019-02-24T00:15:40.341Z,74.80
2019-02-24T00:18:11.274Z,74.70
2019-02-24T00:20:42.742Z,74.70
2019-02-24T00:23:13.584Z,74.70
2019-02-24T00:25:44.168Z,75.40
2019-02-24T00:28:14.925Z,75.10
2019-02-24T00:30:45.968Z,75.30
2019-02-24T00:33:16.601Z,75.80
2019-02-24T00:35:47.517Z,75.80
2019-02-24T00:38:18.322Z,75.90
2019-02-24T00:40:48.933Z,75.80
2019-02-24T00:43:19.541Z,76.70
2019-02-24T00:45:50.226Z,76.60
2019-02-24T00:48:21.134Z,75.80
2019-02-24T00:50:52.008Z,75.50
2019-02-24T00:53:22.607Z,74.90
2019-02-24T00:55:53.500Z,74.80
2019-02-24T00:58:24.213Z,74.80
2019-02-24T01:00:54.991Z,74.80
2019-02-24T01:03:25.785Z,74.90
2019-02-24T01:05:56.703Z,74.80
2019-02-24T01:08:27.691Z,75.40
2019-02-24T01:10:58.977Z,75.20
2019-02-24T01:13:30.015Z,75.40
2019-02-24T01:16:00.903Z,75.20
2019-02-24T01:18:31.724Z,75.30
2019-02-24T01:21:04.037Z,74.80
2019-02-24T01:23:34.855Z,74.80
2019-02-24T01:26:05.846Z,74.80
2019-02-24T01:28:36.949Z,74.80
2019-02-24T01:31:08.056Z,74.50
2019-02-24T01:33:38.769Z,74.40
2019-02-24T01:36:10.011Z,74.20
2019-02-24T01:38:40.715Z,74.30
2019-02-24T01:41:11.453Z,74.70
2019-02-24T01:43:41.985Z,74.60
2019-02-24T01:46:13.054Z,74.90
2019-02-24T01:48:43.974Z,75.30
2019-02-24T01:51:14.869Z,75.20
2019-02-24T01:53:45.812Z,75.40
2019-02-24T01:56:16.628Z,74.90
2019-02-24T01:58:47.926Z,74.80
2019-02-24T02:01:18.427Z,74.90
2019-02-24T02:03:50.412Z,74.90
2019-02-24T02:06:21.515Z,74.90
2019-02-24T02:08:52.428Z,74.80
2019-02-24T02:11:22.946Z,74.40
2019-02-24T02:13:53.975Z,74.90
2019-02-24T02:16:24.769Z,75.40
2019-02-24T02:18:56.697Z,75.30
2019-02-24T02:21:28.844Z,75.50
2019-02-24T02:23:59.593Z,75.30
2019-02-24T02:26:30.331Z,75.30
2019-02-24T02:29:00.961Z,75.30
2019-02-24T02:31:31.677Z,75.50
2019-02-24T02:34:02.611Z,75.90
2019-02-24T02:36:33.400Z,74.90
2019-02-24T02:39:04.587Z,74.90
2019-02-24T02:41:38.826Z,75.20
2019-02-24T02:44:09.439Z,75.40
2019-02-24T02:46:40.272Z,74.90
2019-02-24T02:49:10.798Z,74.80
2019-02-24T02:51:41.368Z,74.80
2019-02-24T02:54:13.479Z,74.80
2019-02-24T02:56:44.419Z,74.80
2019-02-24T02:59:15.000Z,74.90
2019-02-24T03:01:47.276Z,74.90
2019-02-24T03:04:18.212Z,75.00
2019-02-24T03:07:05.432Z,75.30
2019-02-24T03:09:36.023Z,75.50
2019-02-24T03:12:06.939Z,75.40
2019-02-24T03:14:37.760Z,75.40
2019-02-24T03:17:08.697Z,74.90
2019-02-24T03:19:39.390Z,74.90
2019-02-24T03:22:09.936Z,74.90
2019-02-24T03:24:40.628Z,75.00
2019-02-24T03:27:11.360Z,75.00
2019-02-24T03:29:41.974Z,74.90
2019-02-24T03:32:12.938Z,74.90
2019-02-24T03:34:44.668Z,75.00
2019-02-24T03:37:15.310Z,75.80
2019-02-24T03:39:45.783Z,75.60
2019-02-24T03:42:16.393Z,75.40
2019-02-24T03:44:47.177Z,74.70
2019-02-24T03:47:17.978Z,75.70
2019-02-24T03:49:48.517Z,75.90
2019-02-24T03:52:19.331Z,76.00
2019-02-24T03:54:50.581Z,76.50
2019-02-24T03:57:21.254Z,76.40
2019-02-24T03:59:52.067Z,76.40
2019-02-24T04:02:22.705Z,76.50
2019-02-24T04:04:53.742Z,76.20
2019-02-24T04:07:24.578Z,76.20
2019-02-24T04:09:55.189Z,76.60
2019-02-24T04:12:25.987Z,76.20
2019-02-24T04:14:57.004Z,75.60
2019-02-24T04:17:28.795Z,76.20
2019-02-24T04:19:59.558Z,77.00
2019-02-24T04:22:30.700Z,76.60
2019-02-24T04:25:01.337Z,76.40
2019-02-24T04:27:32.223Z,76.50
2019-02-24T04:30:02.812Z,76.30
2019-02-24T04:32:34.565Z,76.00
2019-02-24T04:35:05.099Z,75.50
2019-02-24T04:37:35.820Z,75.50
2019-02-24T04:40:06.902Z,75.60
2019-02-24T04:42:37.635Z,75.80
2019-02-24T04:45:08.580Z,76.60
2019-02-24T04:47:39.431Z,76.20
2019-02-24T04:50:10.507Z,76.40
2019-02-24T04:52:41.827Z,76.60
2019-02-24T04:55:12.893Z,77.10
2019-02-24T04:57:43.417Z,77.70
2019-02-24T05:00:14.276Z,78.00
2019-02-24T05:02:45.448Z,78.00
2019-02-24T05:05:16.639Z,78.30
2019-02-24T05:07:47.525Z,78.00
2019-02-24T05:10:18.515Z,78.30
2019-02-24T05:12:49.522Z,78.00
2019-02-24T05:15:20.337Z,78.20
2019-02-24T05:17:51.307Z,78.10
2019-02-24T05:20:22.505Z,78.20
2019-02-24T05:22:53.408Z,77.80
2019-02-24T05:25:24.186Z,78.10
2019-02-24T05:27:55.457Z,78.10
2019-02-24T05:30:26.351Z,78.50
2019-02-24T05:32:57.114Z,78.50
2019-02-24T05:35:28.236Z,78.40
2019-02-24T05:37:59.380Z,78.50
2019-02-24T05:40:30.040Z,78.00
2019-02-24T05:43:01.085Z,77.70
2019-02-24T05:45:31.691Z,77.20
2019-02-24T05:48:02.453Z,77.00
2019-02-24T05:50:34.321Z,76.70
2019-02-24T05:53:05.068Z,76.60
2019-02-24T05:55:35.830Z,76.10
2019-02-24T05:58:06.328Z,76.10
2019-02-24T06:00:37.371Z,76.20
2019-02-24T06:03:08.822Z,75.60
2019-02-24T06:05:40.640Z,75.70
2019-02-24T06:08:11.446Z,75.70
2019-02-24T06:10:42.280Z,75.70
2019-02-24T06:13:13.186Z,75.20
2019-02-24T06:15:44.852Z,75.90
2019-02-24T06:18:15.594Z,75.60
2019-02-24T06:20:46.427Z,75.60
2019-02-24T06:23:18.319Z,75.50
2019-02-24T06:25:49.025Z,75.60
2019-02-24T06:28:20.891Z,75.90
2019-02-24T06:30:51.762Z,75.30
2019-02-24T06:33:22.298Z,75.10
2019-02-24T06:35:52.785Z,74.70
2019-02-24T06:38:23.333Z,74.50
2019-02-24T06:40:54.074Z,74.40
2019-02-24T06:43:24.897Z,75.00
2019-02-24T06:45:55.501Z,75.10
2019-02-24T06:48:26.305Z,75.00
2019-02-24T06:51:00.128Z,74.90
2019-02-24T06:53:31.229Z,75.10
2019-02-24T06:56:01.966Z,75.30
2019-02-24T06:58:32.991Z,75.50
2019-02-24T07:01:03.806Z,75.10
2019-02-24T07:03:34.799Z,74.90
2019-02-24T07:06:05.571Z,74.60
2019-02-24T07:08:36.811Z,74.00
2019-02-24T07:11:07.492Z,74.40
2019-02-24T07:13:38.712Z,73.50
2019-02-24T07:16:09.690Z,72.90
2019-02-24T07:18:41.020Z,72.20
2019-02-24T07:21:13.512Z,71.60
2019-02-24T07:23:45.624Z,71.20
2019-02-24T07:26:17.118Z,70.50
2019-02-24T07:28:47.978Z,70.10
2019-02-24T07:31:19.198Z,70.00
2019-02-24T07:33:50.452Z,69.60
2019-02-24T07:36:21.579Z,68.80
2019-02-24T07:38:53.041Z,69.20
2019-02-24T07:41:23.841Z,68.80
2019-02-24T07:43:54.919Z,67.60
2019-02-24T07:46:26.368Z,67.40
2019-02-24T07:48:57.346Z,67.60
2019-02-24T07:51:27.972Z,67.60
2019-02-24T07:53:59.018Z,66.80
2019-02-24T07:56:30.667Z,66.90
2019-02-24T07:59:01.333Z,66.00
2019-02-24T08:01:33.112Z,65.90
2019-02-24T08:04:03.997Z,66.00
2019-02-24T08:06:34.902Z,65.90
2019-02-24T08:09:06.592Z,65.70
2019-02-24T08:11:37.833Z,65.10
2019-02-24T08:14:08.909Z,63.60
2019-02-24T08:16:40.771Z,62.70
2019-02-24T08:19:13.011Z,63.50
2019-02-24T08:21:43.631Z,63.30
2019-02-24T08:24:14.151Z,63.30
2019-02-24T08:26:44.844Z,63.70
2019-02-24T08:29:15.790Z,63.60
2019-02-24T08:31:46.560Z,65.20
2019-02-24T08:34:17.476Z,65.40
2019-02-24T08:36:48.106Z,63.00
2019-02-24T08:39:19.896Z,62.00
2019-02-24T08:41:50.702Z,61.60
2019-02-24T08:44:22.262Z,60.50
2019-02-24T08:46:53.568Z,59.80
2019-02-24T08:49:24.782Z,60.50
2019-02-24T08:51:55.490Z,59.70
2019-02-24T08:54:27.076Z,59.80
2019-02-24T08:56:57.826Z,59.70
2019-02-24T08:59:29.331Z,59.80
2019-02-24T09:02:00.080Z,59.30
2019-02-24T09:04:31.336Z,58.40
2019-02-24T09:07:02.170Z,58.50
2019-02-24T09:09:33.621Z,58.20
2019-02-24T09:12:04.365Z,59.20
2019-02-24T09:14:35.337Z,57.40
2019-02-24T09:17:06.340Z,58.10
2019-02-24T09:19:37.184Z,57.30
2019-02-24T09:22:08.125Z,57.70
2019-02-24T09:24:38.991Z,58.70
2019-02-24T09:27:10.075Z,58.80
2019-02-24T09:29:41.053Z,58.20
2019-02-24T09:32:11.892Z,58.50
2019-02-24T09:34:44.019Z,57.60
2019-02-24T09:37:14.785Z,57.10
2019-02-24T09:39:45.796Z,57.30
2019-02-24T09:42:16.738Z,57.70
2019-02-24T09:44:48.866Z,58.00
2019-02-24T09:47:20.079Z,57.50
2019-02-24T09:49:50.977Z,57.60
2019-02-24T09:52:21.938Z,56.90
2019-02-24T09:54:53.678Z,56.30
2019-02-24T09:57:24.522Z,56.40
2019-02-24T09:59:55.799Z,56.00
2019-02-24T10:02:26.880Z,55.90
2019-02-24T10:04:57.747Z,55.60
2019-02-24T10:07:28.439Z,56.00
2019-02-24T10:09:59.582Z,57.30
2019-02-24T10:12:30.376Z,57.20
2019-02-24T10:15:01.538Z,57.20
2019-02-24T10:17:32.247Z,55.80
2019-02-24T10:20:03.009Z,56.60
2019-02-24T10:22:34.432Z,56.50
2019-02-24T10:25:06.001Z,57.40
2019-02-24T10:27:37.136Z,56.40
2019-02-24T10:30:08.851Z,56.90
2019-02-24T10:32:39.996Z,57.30
2019-02-24T10:35:10.688Z,57.20
2019-02-24T10:37:41.859Z,57.80
2019-02-24T10:40:13.754Z,58.00
2019-02-24T10:42:45.015Z,58.50
2019-02-24T10:45:16.983Z,58.20
2019-02-24T10:47:47.873Z,57.00
2019-02-24T10:50:19.253Z,58.20
2019-02-24T10:52:50.159Z,58.10
2019-02-24T10:55:21.228Z,58.30
2019-02-24T10:57:52.215Z,58.10
2019-02-24T11:00:23.623Z,58.40
2019-02-24T11:02:55.884Z,58.50
2019-02-24T11:05:27.043Z,58.00
2019-02-24T11:07:58.560Z,57.00
2019-02-24T11:10:29.523Z,56.30
2019-02-24T11:13:01.029Z,55.90
2019-02-24T11:15:32.302Z,55.20
2019-02-24T11:18:04.210Z,55.30
2019-02-24T11:20:35.716Z,55.90
2019-02-24T11:23:06.504Z,55.90
2019-02-24T11:25:37.720Z,55.10
2019-02-24T11:28:08.683Z,54.10
2019-02-24T11:30:39.863Z,52.60
2019-02-24T11:33:10.636Z,52.80
2019-02-24T11:35:41.890Z,52.90
2019-02-24T11:38:12.569Z,53.60
2019-02-24T11:40:43.928Z,53.50
2019-02-24T11:43:15.466Z,53.70
2019-02-24T11:45:46.278Z,53.70
2019-02-24T11:48:17.403Z,53.30
2019-02-24T11:50:48.022Z,53.30
2019-02-24T11:53:18.615Z,51.80
2019-02-24T11:55:49.688Z,51.40
2019-02-24T11:58:20.295Z,51.70
2019-02-24T12:00:51.185Z,52.60
2019-02-24T12:03:21.903Z,51.80
2019-02-24T12:05:52.583Z,51.80
2019-02-24T12:08:23.593Z,51.30
2019-02-24T12:10:54.574Z,50.70
2019-02-24T12:13:25.085Z,50.20
2019-02-24T12:15:56.017Z,49.10
2019-02-24T12:18:28.230Z,48.30
2019-02-24T12:20:59.416Z,48.40
2019-02-24T12:23:30.284Z,49.30
2019-02-24T12:26:01.274Z,48.90
2019-02-24T12:28:32.074Z,47.50
2019-02-24T12:31:02.822Z,46.50
2019-02-24T12:33:33.528Z,46.40
2019-02-24T12:36:05.537Z,46.30
2019-02-24T12:38:36.733Z,45.70
2019-02-24T12:41:07.800Z,44.90
2019-02-24T12:43:38.848Z,44.80
2019-02-24T12:46:10.012Z,44.50
2019-02-24T12:48:41.372Z,44.10
2019-02-24T12:51:12.460Z,44.80
2019-02-24T12:53:43.401Z,44.50
2019-02-24T12:56:14.989Z,44.20
2019-02-24T12:58:46.770Z,43.50
2019-02-24T13:01:17.994Z,42.50
2019-02-24T13:03:49.222Z,43.10
2019-02-24T13:06:20.208Z,43.20
2019-02-24T13:08:51.337Z,43.60
2019-02-24T13:11:22.449Z,42.20
2019-02-24T13:13:53.369Z,42.90
2019-02-24T13:16:24.093Z,43.30
2019-02-24T13:18:55.181Z,43.10
2019-02-24T13:21:26.396Z,43.40
2019-02-24T13:23:57.942Z,43.50
2019-02-24T13:26:29.079Z,43.70
2019-02-24T13:29:00.193Z,43.90
2019-02-24T13:31:31.538Z,44.40
2019-02-24T13:34:02.910Z,44.40
2019-02-24T13:36:34.891Z,44.40
2019-02-24T13:39:07.398Z,45.10
2019-02-24T13:41:38.893Z,45.40
2019-02-24T13:44:10.198Z,45.20
2019-02-24T13:46:41.550Z,45.70
2019-02-24T13:49:13.474Z,46.20
2019-02-24T13:51:45.650Z,46.70
2019-02-24T13:54:16.682Z,47.40
2019-02-24T13:56:47.551Z,48.20
2019-02-24T13:59:18.536Z,48.10
2019-02-24T14:01:49.639Z,48.40
2019-02-24T14:04:21.546Z,48.30
2019-02-24T14:06:52.564Z,49.10
2019-02-24T14:09:23.040Z,50.10
2019-02-24T14:11:53.883Z,49.20
2019-02-24T14:14:24.934Z,49.60
2019-02-24T14:16:57.362Z,49.80
2019-02-24T14:19:28.745Z,49.70
2019-02-24T14:21:59.840Z,48.80
2019-02-24T14:24:32.600Z,50.70
2019-02-24T14:27:03.879Z,52.90
2019-02-24T14:29:35.306Z,51.00
2019-02-24T14:32:06.326Z,51.20
2019-02-24T14:34:37.923Z,51.30
2019-02-24T14:37:09.966Z,50.80
2019-02-24T14:39:41.069Z,51.00
2019-02-24T14:42:13.275Z,50.90
2019-02-24T14:44:44.183Z,50.70
2019-02-24T14:47:15.049Z,51.00
2019-02-24T14:49:45.859Z,51.50
2019-02-24T14:52:17.103Z,51.70
2019-02-24T14:54:47.989Z,52.90
2019-02-24T14:57:18.652Z,52.50
2019-02-24T14:59:49.701Z,52.50
2019-02-24T15:02:21.033Z,52.50
2019-02-24T15:04:51.888Z,53.40
2019-02-24T15:07:23.478Z,53.80
2019-02-24T15:09:54.264Z,54.20
2019-02-24T15:12:25.139Z,54.20
2019-02-24T15:14:56.097Z,54.20
2019-02-24T15:17:26.812Z,54.70
2019-02-24T15:19:58.087Z,55.30
2019-02-24T15:22:28.919Z,55.30
2019-02-24T15:24:59.907Z,55.10
2019-02-24T15:27:30.937Z,55.20
2019-02-24T15:30:01.981Z,55.40
2019-02-24T15:32:33.214Z,55.90
2019-02-24T15:35:04.477Z,55.40
2019-02-24T15:37:36.396Z,55.40
2019-02-24T15:40:08.084Z,55.60
2019-02-24T15:42:38.718Z,55.70
2019-02-24T15:45:09.896Z,55.30
2019-02-24T15:47:40.970Z,55.60
2019-02-24T15:50:12.138Z,55.40
2019-02-24T15:52:42.850Z,55.40
2019-02-24T15:55:13.904Z,55.20
2019-02-24T15:57:44.950Z,54.90
2019-02-24T16:00:17.374Z,55.40
2019-02-24T16:02:48.302Z,55.00
2019-02-24T16:05:19.371Z,55.50
2019-02-24T16:07:50.665Z,55.60
2019-02-24T16:10:21.935Z,55.60
2019-02-24T16:12:53.215Z,55.70
2019-02-24T16:15:24.367Z,55.70
2019-02-24T16:17:55.499Z,56.00
2019-02-24T16:20:27.018Z,55.60
2019-02-24T16:22:58.539Z,56.10
2019-02-24T16:25:29.598Z,56.80
2019-02-24T16:28:02.296Z,57.30
2019-02-24T16:30:33.094Z,57.30
2019-02-24T16:33:10.239Z,57.10
2019-02-24T16:35:36.039Z,56.90
2019-02-24T16:38:06.697Z,57.20
2019-02-24T16:40:38.222Z,57.40
2019-02-24T16:43:09.092Z,57.20
2019-02-24T16:45:39.675Z,56.80
2019-02-24T16:48:10.433Z,57.10
2019-02-24T16:50:42.234Z,57.50
2019-02-24T16:53:13.135Z,57.20
2019-02-24T16:55:43.813Z,56.90
2019-02-24T16:58:14.501Z,57.10
2019-02-24T17:00:45.867Z,57.00
2019-02-24T17:03:19.846Z,57.00
2019-02-24T17:05:49.617Z,57.40
2019-02-24T17:08:20.979Z,57.50
2019-02-24T17:10:52.045Z,57.40
2019-02-24T17:13:23.010Z,57.20
2019-02-24T17:15:53.783Z,56.60
2019-02-24T17:18:25.008Z,57.20
2019-02-24T17:20:56.839Z,57.50
2019-02-24T17:23:27.674Z,57.60
2019-02-24T17:25:58.403Z,57.70
2019-02-24T17:28:29.265Z,57.70
2019-02-24T17:31:00.132Z,58.00
2019-02-24T17:33:32.683Z,57.80
2019-02-24T17:36:03.873Z,57.80
2019-02-24T17:38:34.882Z,58.20
2019-02-24T17:41:05.810Z,58.50
2019-02-24T17:43:36.441Z,58.20
2019-02-24T17:46:07.617Z,58.40
2019-02-24T17:48:38.543Z,59.00
2019-02-24T17:51:09.788Z,58.80
2019-02-24T17:53:40.533Z,57.80
2019-02-24T17:56:11.876Z,57.80
2019-02-24T17:58:43.751Z,57.80
2019-02-24T18:01:14.687Z,57.40
2019-02-24T18:03:45.379Z,57.10
2019-02-24T18:06:16.409Z,57.30
2019-02-24T18:08:47.638Z,57.20
2019-02-24T18:11:18.922Z,57.10
2019-02-24T18:13:50.039Z,57.20
2019-02-24T18:16:21.440Z,57.10
2019-02-24T18:18:51.389Z,57.30
2019-02-24T18:21:22.730Z,57.60
2019-02-24T18:23:56.121Z,57.80
2019-02-24T18:26:27.370Z,57.30
2019-02-24T18:28:58.667Z,57.30
2019-02-24T18:31:30.014Z,56.40
2019-02-24T18:34:01.128Z,56.30
2019-02-24T18:36:32.744Z,56.60
2019-02-24T18:39:05.525Z,56.10
2019-02-24T18:41:38.180Z,55.40
2019-02-24T18:44:09.119Z,54.60
2019-02-24T18:46:39.980Z,54.60
2019-02-24T18:49:13.292Z,54.10
2019-02-24T18:51:44.549Z,54.60
2019-02-24T18:54:15.635Z,54.30
2019-02-24T18:56:51.402Z,54.40
2019-02-24T18:59:28.244Z,54.40
2019-02-24T19:01:59.389Z,54.40
2019-02-24T19:04:30.225Z,54.90
2019-02-24T19:07:01.070Z,54.60
2019-02-24T19:09:32.134Z,54.70
2019-02-24T19:12:03.321Z,54.40
2019-02-24T19:14:34.257Z,54.50
2019-02-24T19:17:05.535Z,54.40
2019-02-24T19:19:36.507Z,54.30
2019-02-24T19:22:07.457Z,54.60
2019-02-24T19:24:38.658Z,54.30
2019-02-24T19:27:10.829Z,54.10
2019-02-24T19:29:41.481Z,54.00
2019-02-24T19:32:12.374Z,54.20
2019-02-24T19:34:43.313Z,53.80
2019-02-24T19:37:14.213Z,54.40
2019-02-24T19:39:46.292Z,54.30
2019-02-24T19:42:17.497Z,54.40
2019-02-24T19:44:48.525Z,54.60
2019-02-24T19:47:19.638Z,54.70
2019-02-24T19:49:50.557Z,55.10
2019-02-24T19:52:21.571Z,55.00
2019-02-24T19:54:55.167Z,56.10
2019-02-24T19:57:26.351Z,55.40
2019-02-24T19:59:57.798Z,55.70
2019-02-24T20:02:29.820Z,56.30
2019-02-24T20:05:01.113Z,56.70
2019-02-24T20:07:32.142Z,57.40
2019-02-24T20:10:03.286Z,58.20
2019-02-24T20:12:34.392Z,58.80
2019-02-24T20:15:06.477Z,59.60
2019-02-24T20:17:37.460Z,59.70
2019-02-24T20:20:09.311Z,59.70
2019-02-24T20:22:40.644Z,59.60
2019-02-24T20:25:12.001Z,59.20
2019-02-24T20:27:43.394Z,59.10
2019-02-24T20:30:16.661Z,59.10
2019-02-24T20:32:48.516Z,59.30
2019-02-24T20:35:19.502Z,58.70
2019-02-24T20:37:50.255Z,58.50
2019-02-24T20:40:21.602Z,58.60
2019-02-24T20:42:52.609Z,58.80
2019-02-24T20:45:25.948Z,58.80
2019-02-24T20:47:56.692Z,58.80
2019-02-24T20:50:29.287Z,58.80
2019-02-24T20:53:00.341Z,60.00
2019-02-24T20:55:31.167Z,60.80
2019-02-24T20:58:02.905Z,60.30
2019-02-24T21:00:36.548Z,60.40
2019-02-24T21:03:07.868Z,59.60
2019-02-24T21:05:38.737Z,59.80
2019-02-24T21:08:09.646Z,58.30
2019-02-24T21:10:40.715Z,57.90
2019-02-24T21:13:11.513Z,57.50
2019-02-24T21:15:42.970Z,57.40
2019-02-24T21:18:14.672Z,57.50
2019-02-24T21:20:45.915Z,57.10
2019-02-24T21:23:19.195Z,56.90
2019-02-24T21:25:50.815Z,56.60
2019-02-24T21:28:22.483Z,56.30
2019-02-24T21:30:53.950Z,56.20
2019-02-24T21:33:25.457Z,55.70
2019-02-24T21:35:56.959Z,55.20
2019-02-24T21:38:27.995Z,54.80
2019-02-24T21:40:59.070Z,54.50
2019-02-24T21:43:29.941Z,54.20
2019-02-24T21:46:01.048Z,53.60
2019-02-24T21:48:32.436Z,53.80
2019-02-24T21:51:03.268Z,53.90
2019-02-24T21:53:34.106Z,54.20
2019-02-24T21:56:05.297Z,53.50
2019-02-24T21:58:36.084Z,53.20
2019-02-24T22:01:07.604Z,52.60
2019-02-24T22:03:38.817Z,52.10
2019-02-24T22:06:09.714Z,52.10
2019-02-24T22:08:40.661Z,52.00
2019-02-24T22:11:11.301Z,51.70
2019-02-24T22:13:43.582Z,51.90
2019-02-24T22:16:22.526Z,51.60
2019-02-24T22:18:53.550Z,51.30
2019-02-24T22:21:26.185Z,51.20
2019-02-24T22:23:57.368Z,51.20
2019-02-24T22:26:28.520Z,51.40
2019-02-24T22:28:59.931Z,51.50
2019-02-24T22:31:31.079Z,51.80
2019-02-24T22:34:02.098Z,52.30
2019-02-24T22:36:33.181Z,52.30
2019-02-24T22:39:04.676Z,52.80
2019-02-24T22:41:37.306Z,52.60
2019-02-24T22:44:07.880Z,52.60
2019-02-24T22:46:38.933Z,53.80
2019-02-24T22:49:10.198Z,53.40
2019-02-24T22:51:42.208Z,53.60
2019-02-24T22:54:12.836Z,53.70
2019-02-24T22:56:43.786Z,53.50
2019-02-24T22:59:14.550Z,53.80
2019-02-24T23:01:46.864Z,53.90
2019-02-24T23:04:17.752Z,54.10
2019-02-24T23:06:48.750Z,54.80
2019-02-24T23:09:20.710Z,55.00
2019-02-24T23:11:52.460Z,54.90
2019-02-24T23:14:24.233Z,55.30
2019-02-24T23:16:55.648Z,55.50
2019-02-24T23:19:26.798Z,55.90
2019-02-24T23:21:57.576Z,56.30
2019-02-24T23:24:28.772Z,56.60
2019-02-24T23:27:00.974Z,56.70
2019-02-24T23:29:31.994Z,56.70
2019-02-24T23:32:02.806Z,56.80
2019-02-24T23:34:33.816Z,56.80
2019-02-24T23:37:04.611Z,56.80
2019-02-24T23:39:35.407Z,56.60
2019-02-24T23:42:06.126Z,56.40
2019-02-24T23:44:37.778Z,56.20
2019-02-24T23:47:08.413Z,55.80
2019-02-24T23:49:39.485Z,54.90
2019-02-24T23:52:10.205Z,54.10
2019-02-24T23:54:41.519Z,53.80
2019-02-24T23:57:12.526Z,53.40
2019-02-24T23:59:45.280Z,52.70
